sensor_id;sensor_type;location;lat;lon;timestamp;P1;durP1;ratioP1;P2;durP2;ratioP2
39540;SDS011;25219;52.244;21.006;2023-06-04T00:01:37;4.85;;;2.88;;
39540;SDS011;25219;52.244;21.006;2023-06-04T00:04:02;9.80;;;3.13;;
39540;SDS011;25219;52.244;21.006;2023-06-04T00:06:27;11.27;;;3.53;;
39540;SDS011;25219;52.244;21.006;2023-06-04T00:08:53;6.23;;;3.30;;
39540;SDS011;25219;52.244;21.006;2023-06-04T00:11:18;7.00;;;2.97;;
39540;SDS011;25219;52.244;21.006;2023-06-04T00:13:44;7.28;;;3.70;;
39540;SDS011;25219;52.244;21.006;2023-06-04T00:16:10;9.53;;;3.77;;
39540;SDS011;25219;52.244;21.006;2023-06-04T00:18:35;9.67;;;3.87;;
39540;SDS011;25219;52.244;21.006;2023-06-04T00:21:00;5.67;;;3.53;;
39540;SDS011;25219;52.244;21.006;2023-06-04T00:23:25;8.73;;;3.60;;
39540;SDS011;25219;52.244;21.006;2023-06-04T00:25:50;9.80;;;3.77;;
39540;SDS011;25219;52.244;21.006;2023-06-04T00:28:16;8.57;;;3.70;;
39540;SDS011;25219;52.244;21.006;2023-06-04T00:30:41;7.20;;;3.57;;
39540;SDS011;25219;52.244;21.006;2023-06-04T00:33:07;5.35;;;3.40;;
39540;SDS011;25219;52.244;21.006;2023-06-04T00:35:33;9.20;;;3.50;;
39540;SDS011;25219;52.244;21.006;2023-06-04T00:37:58;14.43;;;4.00;;
39540;SDS011;25219;52.244;21.006;2023-06-04T00:40:23;6.23;;;3.43;;
39540;SDS011;25219;52.244;21.006;2023-06-04T00:42:48;7.37;;;3.53;;
39540;SDS011;25219;52.244;21.006;2023-06-04T00:45:14;8.57;;;3.63;;
39540;SDS011;25219;52.244;21.006;2023-06-04T00:47:40;9.38;;;3.72;;
39540;SDS011;25219;52.244;21.006;2023-06-04T00:50:06;6.20;;;3.30;;
39540;SDS011;25219;52.244;21.006;2023-06-04T00:52:32;8.85;;;3.30;;
39540;SDS011;25219;52.244;21.006;2023-06-04T00:54:57;8.15;;;3.20;;
39540;SDS011;25219;52.244;21.006;2023-06-04T00:57:23;6.87;;;3.30;;
39540;SDS011;25219;52.244;21.006;2023-06-04T00:59:48;9.88;;;3.10;;
39540;SDS011;25219;52.244;21.006;2023-06-04T01:02:14;8.32;;;3.03;;
39540;SDS011;25219;52.244;21.006;2023-06-04T01:04:50;4.55;;;2.75;;
39540;SDS011;25219;52.244;21.006;2023-06-04T01:07:18;6.25;;;2.83;;
39540;SDS011;25219;52.244;21.006;2023-06-04T01:09:44;4.72;;;2.47;;
39540;SDS011;25219;52.244;21.006;2023-06-04T01:12:10;5.32;;;2.88;;
39540;SDS011;25219;52.244;21.006;2023-06-04T01:14:36;4.50;;;2.60;;
39540;SDS011;25219;52.244;21.006;2023-06-04T01:17:02;5.63;;;2.40;;
39540;SDS011;25219;52.244;21.006;2023-06-04T01:22:10;7.35;;;2.20;;
39540;SDS011;25219;52.244;21.006;2023-06-04T01:24:36;3.92;;;2.35;;
39540;SDS011;25219;52.244;21.006;2023-06-04T01:27:03;5.20;;;2.50;;
39540;SDS011;25219;52.244;21.006;2023-06-04T01:29:29;6.57;;;2.35;;
39540;SDS011;25219;52.244;21.006;2023-06-04T01:31:55;5.10;;;2.00;;
39540;SDS011;25219;52.244;21.006;2023-06-04T01:34:20;9.00;;;2.00;;
39540;SDS011;25219;52.244;21.006;2023-06-04T01:36:45;11.03;;;2.30;;
39540;SDS011;25219;52.244;21.006;2023-06-04T01:39:10;6.03;;;2.10;;
39540;SDS011;25219;52.244;21.006;2023-06-04T01:41:35;2.90;;;2.40;;
39540;SDS011;25219;52.244;21.006;2023-06-04T01:44:01;4.67;;;2.00;;
39540;SDS011;25219;52.244;21.006;2023-06-04T01:46:26;4.57;;;2.10;;
39540;SDS011;25219;52.244;21.006;2023-06-04T01:48:51;5.35;;;2.30;;
39540;SDS011;25219;52.244;21.006;2023-06-04T01:51:17;4.20;;;1.70;;
39540;SDS011;25219;52.244;21.006;2023-06-04T01:53:42;2.80;;;1.70;;
39540;SDS011;25219;52.244;21.006;2023-06-04T01:56:07;4.43;;;1.93;;
39540;SDS011;25219;52.244;21.006;2023-06-04T01:58:33;3.95;;;1.75;;
39540;SDS011;25219;52.244;21.006;2023-06-04T02:00:58;3.30;;;1.73;;
39540;SDS011;25219;52.244;21.006;2023-06-04T02:03:25;4.90;;;2.35;;
39540;SDS011;25219;52.244;21.006;2023-06-04T02:05:51;3.88;;;2.03;;
39540;SDS011;25219;52.244;21.006;2023-06-04T02:08:16;4.68;;;2.08;;
39540;SDS011;25219;52.244;21.006;2023-06-04T02:10:47;4.07;;;2.25;;
39540;SDS011;25219;52.244;21.006;2023-06-04T02:13:13;9.85;;;2.25;;
39540;SDS011;25219;52.244;21.006;2023-06-04T02:15:38;7.45;;;2.05;;
39540;SDS011;25219;52.244;21.006;2023-06-04T02:18:14;3.93;;;2.00;;
39540;SDS011;25219;52.244;21.006;2023-06-04T02:20:41;5.13;;;2.20;;
39540;SDS011;25219;52.244;21.006;2023-06-04T02:23:06;3.85;;;1.88;;
39540;SDS011;25219;52.244;21.006;2023-06-04T02:25:31;4.97;;;2.20;;
39540;SDS011;25219;52.244;21.006;2023-06-04T02:27:56;4.83;;;2.00;;
39540;SDS011;25219;52.244;21.006;2023-06-04T02:30:22;3.17;;;2.10;;
39540;SDS011;25219;52.244;21.006;2023-06-04T02:32:47;3.80;;;1.67;;
39540;SDS011;25219;52.244;21.006;2023-06-04T02:35:15;5.18;;;1.88;;
39540;SDS011;25219;52.244;21.006;2023-06-04T02:37:41;4.95;;;1.98;;
39540;SDS011;25219;52.244;21.006;2023-06-04T02:40:06;4.50;;;2.00;;
39540;SDS011;25219;52.244;21.006;2023-06-04T02:42:31;8.18;;;2.40;;
39540;SDS011;25219;52.244;21.006;2023-06-04T02:44:57;4.33;;;1.80;;
39540;SDS011;25219;52.244;21.006;2023-06-04T02:47:22;3.07;;;2.00;;
39540;SDS011;25219;52.244;21.006;2023-06-04T02:49:47;5.18;;;1.85;;
39540;SDS011;25219;52.244;21.006;2023-06-04T02:52:13;4.05;;;2.03;;
39540;SDS011;25219;52.244;21.006;2023-06-04T02:54:38;3.55;;;1.70;;
39540;SDS011;25219;52.244;21.006;2023-06-04T02:57:03;3.50;;;1.83;;
39540;SDS011;25219;52.244;21.006;2023-06-04T02:59:28;5.68;;;2.10;;
39540;SDS011;25219;52.244;21.006;2023-06-04T03:04:29;3.65;;;2.10;;
39540;SDS011;25219;52.244;21.006;2023-06-04T03:06:59;2.55;;;1.60;;
39540;SDS011;25219;52.244;21.006;2023-06-04T03:09:25;4.75;;;1.60;;
39540;SDS011;25219;52.244;21.006;2023-06-04T03:11:50;3.92;;;2.28;;
39540;SDS011;25219;52.244;21.006;2023-06-04T03:14:16;3.67;;;1.90;;
39540;SDS011;25219;52.244;21.006;2023-06-04T03:16:41;3.83;;;1.70;;
39540;SDS011;25219;52.244;21.006;2023-06-04T03:19:06;5.23;;;1.87;;
39540;SDS011;25219;52.244;21.006;2023-06-04T03:21:31;5.43;;;2.10;;
39540;SDS011;25219;52.244;21.006;2023-06-04T03:23:56;3.70;;;1.80;;
39540;SDS011;25219;52.244;21.006;2023-06-04T03:26:22;4.37;;;1.70;;
39540;SDS011;25219;52.244;21.006;2023-06-04T03:28:47;3.83;;;2.07;;
39540;SDS011;25219;52.244;21.006;2023-06-04T03:31:12;3.37;;;1.70;;
39540;SDS011;25219;52.244;21.006;2023-06-04T03:33:37;4.43;;;2.27;;
39540;SDS011;25219;52.244;21.006;2023-06-04T03:36:02;2.87;;;1.70;;
39540;SDS011;25219;52.244;21.006;2023-06-04T03:38:28;5.80;;;1.90;;
39540;SDS011;25219;52.244;21.006;2023-06-04T03:40:53;8.00;;;1.57;;
39540;SDS011;25219;52.244;21.006;2023-06-04T03:43:19;2.65;;;1.80;;
39540;SDS011;25219;52.244;21.006;2023-06-04T03:45:44;3.67;;;1.55;;
39540;SDS011;25219;52.244;21.006;2023-06-04T03:48:10;3.60;;;1.95;;
39540;SDS011;25219;52.244;21.006;2023-06-04T03:50:36;3.38;;;1.40;;
39540;SDS011;25219;52.244;21.006;2023-06-04T03:53:01;4.40;;;1.65;;
39540;SDS011;25219;52.244;21.006;2023-06-04T03:55:26;4.30;;;1.85;;
39540;SDS011;25219;52.244;21.006;2023-06-04T03:57:51;3.15;;;1.92;;
39540;SDS011;25219;52.244;21.006;2023-06-04T04:00:17;3.28;;;1.40;;
39540;SDS011;25219;52.244;21.006;2023-06-04T04:02:43;5.60;;;2.05;;
39540;SDS011;25219;52.244;21.006;2023-06-04T04:05:08;5.30;;;1.90;;
39540;SDS011;25219;52.244;21.006;2023-06-04T04:07:34;3.03;;;1.80;;
39540;SDS011;25219;52.244;21.006;2023-06-04T04:09:59;5.07;;;2.00;;
39540;SDS011;25219;52.244;21.006;2023-06-04T04:12:24;2.90;;;1.90;;
39540;SDS011;25219;52.244;21.006;2023-06-04T04:14:49;4.60;;;1.90;;
39540;SDS011;25219;52.244;21.006;2023-06-04T04:17:15;3.67;;;1.70;;
39540;SDS011;25219;52.244;21.006;2023-06-04T04:19:40;6.27;;;1.83;;
39540;SDS011;25219;52.244;21.006;2023-06-04T04:22:05;6.07;;;2.00;;
39540;SDS011;25219;52.244;21.006;2023-06-04T04:24:31;3.80;;;1.67;;
39540;SDS011;25219;52.244;21.006;2023-06-04T04:26:59;4.40;;;2.25;;
39540;SDS011;25219;52.244;21.006;2023-06-04T04:29:24;4.22;;;1.88;;
39540;SDS011;25219;52.244;21.006;2023-06-04T04:31:53;3.70;;;2.00;;
39540;SDS011;25219;52.244;21.006;2023-06-04T04:34:21;3.67;;;1.73;;
39540;SDS011;25219;52.244;21.006;2023-06-04T04:36:46;3.13;;;1.60;;
39540;SDS011;25219;52.244;21.006;2023-06-04T04:39:18;6.22;;;3.22;;
39540;SDS011;25219;52.244;21.006;2023-06-04T04:41:44;3.78;;;2.00;;
39540;SDS011;25219;52.244;21.006;2023-06-04T04:44:09;7.07;;;1.90;;
39540;SDS011;25219;52.244;21.006;2023-06-04T04:46:34;3.37;;;1.40;;
39540;SDS011;25219;52.244;21.006;2023-06-04T04:48:59;4.68;;;1.90;;
39540;SDS011;25219;52.244;21.006;2023-06-04T04:51:25;2.55;;;1.40;;
39540;SDS011;25219;52.244;21.006;2023-06-04T04:53:50;3.53;;;1.93;;
39540;SDS011;25219;52.244;21.006;2023-06-04T04:56:15;5.57;;;1.70;;
39540;SDS011;25219;52.244;21.006;2023-06-04T04:58:40;3.07;;;1.70;;
39540;SDS011;25219;52.244;21.006;2023-06-04T05:01:07;4.65;;;1.90;;
39540;SDS011;25219;52.244;21.006;2023-06-04T05:03:32;7.88;;;1.85;;
39540;SDS011;25219;52.244;21.006;2023-06-04T05:05:57;5.07;;;1.60;;
39540;SDS011;25219;52.244;21.006;2023-06-04T05:08:22;9.00;;;1.57;;
39540;SDS011;25219;52.244;21.006;2023-06-04T05:10:48;3.83;;;1.40;;
39540;SDS011;25219;52.244;21.006;2023-06-04T05:13:13;11.25;;;1.80;;
39540;SDS011;25219;52.244;21.006;2023-06-04T05:15:38;4.53;;;1.80;;
39540;SDS011;25219;52.244;21.006;2023-06-04T05:18:07;7.47;;;1.85;;
39540;SDS011;25219;52.244;21.006;2023-06-04T05:20:32;2.67;;;1.67;;
39540;SDS011;25219;52.244;21.006;2023-06-04T05:23:00;3.60;;;1.58;;
39540;SDS011;25219;52.244;21.006;2023-06-04T05:25:25;4.93;;;1.90;;
39540;SDS011;25219;52.244;21.006;2023-06-04T05:27:52;2.55;;;1.30;;
39540;SDS011;25219;52.244;21.006;2023-06-04T05:30:17;3.92;;;1.33;;
39540;SDS011;25219;52.244;21.006;2023-06-04T05:32:42;6.78;;;1.65;;
39540;SDS011;25219;52.244;21.006;2023-06-04T05:35:08;3.20;;;1.70;;
39540;SDS011;25219;52.244;21.006;2023-06-04T05:37:33;3.35;;;1.70;;
39540;SDS011;25219;52.244;21.006;2023-06-04T05:40:02;3.00;;;1.25;;
39540;SDS011;25219;52.244;21.006;2023-06-04T05:42:28;2.45;;;1.55;;
39540;SDS011;25219;52.244;21.006;2023-06-04T05:44:53;2.17;;;1.10;;
39540;SDS011;25219;52.244;21.006;2023-06-04T05:47:18;3.97;;;1.50;;
39540;SDS011;25219;52.244;21.006;2023-06-04T05:49:43;2.80;;;1.43;;
39540;SDS011;25219;52.244;21.006;2023-06-04T05:52:09;1.95;;;1.30;;
39540;SDS011;25219;52.244;21.006;2023-06-04T05:54:34;2.40;;;1.40;;
39540;SDS011;25219;52.244;21.006;2023-06-04T05:56:59;2.65;;;1.50;;
39540;SDS011;25219;52.244;21.006;2023-06-04T05:59:24;2.67;;;1.47;;
39540;SDS011;25219;52.244;21.006;2023-06-04T06:01:50;6.97;;;1.50;;
39540;SDS011;25219;52.244;21.006;2023-06-04T06:04:15;2.53;;;1.30;;
39540;SDS011;25219;52.244;21.006;2023-06-04T06:06:41;5.13;;;1.42;;
39540;SDS011;25219;52.244;21.006;2023-06-04T06:09:08;2.30;;;1.30;;
39540;SDS011;25219;52.244;21.006;2023-06-04T06:11:34;5.03;;;1.10;;
39540;SDS011;25219;52.244;21.006;2023-06-04T06:13:59;7.80;;;1.60;;
39540;SDS011;25219;52.244;21.006;2023-06-04T06:16:24;2.53;;;1.23;;
39540;SDS011;25219;52.244;21.006;2023-06-04T06:18:49;1.63;;;0.90;;
39540;SDS011;25219;52.244;21.006;2023-06-04T06:21:15;2.87;;;1.30;;
39540;SDS011;25219;52.244;21.006;2023-06-04T06:23:40;4.37;;;1.30;;
39540;SDS011;25219;52.244;21.006;2023-06-04T06:26:05;2.58;;;1.75;;
39540;SDS011;25219;52.244;21.006;2023-06-04T06:28:33;2.30;;;1.15;;
39540;SDS011;25219;52.244;21.006;2023-06-04T06:30:58;4.63;;;1.45;;
39540;SDS011;25219;52.244;21.006;2023-06-04T06:33:23;5.03;;;1.30;;
39540;SDS011;25219;52.244;21.006;2023-06-04T06:35:49;5.50;;;1.23;;
39540;SDS011;25219;52.244;21.006;2023-06-04T06:38:14;4.70;;;1.10;;
39540;SDS011;25219;52.244;21.006;2023-06-04T06:40:40;4.60;;;1.58;;
39540;SDS011;25219;52.244;21.006;2023-06-04T06:43:05;3.45;;;0.95;;
39540;SDS011;25219;52.244;21.006;2023-06-04T06:45:30;1.35;;;0.90;;
39540;SDS011;25219;52.244;21.006;2023-06-04T06:47:56;4.60;;;0.90;;
39540;SDS011;25219;52.244;21.006;2023-06-04T06:50:21;2.13;;;0.80;;
39540;SDS011;25219;52.244;21.006;2023-06-04T06:52:46;1.97;;;1.40;;
39540;SDS011;25219;52.244;21.006;2023-06-04T06:55:11;1.70;;;1.17;;
39540;SDS011;25219;52.244;21.006;2023-06-04T06:57:36;4.70;;;1.20;;
39540;SDS011;25219;52.244;21.006;2023-06-04T07:00:02;2.50;;;0.80;;
39540;SDS011;25219;52.244;21.006;2023-06-04T07:02:28;3.17;;;1.10;;
39540;SDS011;25219;52.244;21.006;2023-06-04T07:04:54;1.48;;;1.10;;
39540;SDS011;25219;52.244;21.006;2023-06-04T07:07:19;2.23;;;1.00;;
39540;SDS011;25219;52.244;21.006;2023-06-04T07:09:44;3.23;;;0.70;;
39540;SDS011;25219;52.244;21.006;2023-06-04T07:12:09;1.33;;;0.67;;
39540;SDS011;25219;52.244;21.006;2023-06-04T07:14:35;2.67;;;0.65;;
39540;SDS011;25219;52.244;21.006;2023-06-04T07:17:00;1.05;;;0.70;;
39540;SDS011;25219;52.244;21.006;2023-06-04T07:19:25;1.83;;;0.60;;
39540;SDS011;25219;52.244;21.006;2023-06-04T07:21:53;1.93;;;0.80;;
39540;SDS011;25219;52.244;21.006;2023-06-04T07:24:18;1.33;;;0.60;;
39540;SDS011;25219;52.244;21.006;2023-06-04T07:26:43;1.50;;;0.60;;
39540;SDS011;25219;52.244;21.006;2023-06-04T07:29:09;2.83;;;0.70;;
39540;SDS011;25219;52.244;21.006;2023-06-04T07:31:34;3.03;;;0.70;;
39540;SDS011;25219;52.244;21.006;2023-06-04T07:33:59;1.83;;;0.70;;
39540;SDS011;25219;52.244;21.006;2023-06-04T07:36:24;3.65;;;0.60;;
39540;SDS011;25219;52.244;21.006;2023-06-04T07:38:50;2.58;;;0.95;;
39540;SDS011;25219;52.244;21.006;2023-06-04T07:41:15;2.43;;;0.80;;
39540;SDS011;25219;52.244;21.006;2023-06-04T07:43:40;2.57;;;1.00;;
39540;SDS011;25219;52.244;21.006;2023-06-04T07:46:07;1.83;;;0.98;;
39540;SDS011;25219;52.244;21.006;2023-06-04T07:48:32;3.53;;;1.50;;
39540;SDS011;25219;52.244;21.006;2023-06-04T07:50:58;2.73;;;0.77;;
39540;SDS011;25219;52.244;21.006;2023-06-04T07:53:23;2.45;;;0.80;;
39540;SDS011;25219;52.244;21.006;2023-06-04T07:55:48;1.90;;;0.80;;
39540;SDS011;25219;52.244;21.006;2023-06-04T07:58:13;2.77;;;1.00;;
39540;SDS011;25219;52.244;21.006;2023-06-04T08:00:39;4.93;;;1.00;;
39540;SDS011;25219;52.244;21.006;2023-06-04T08:03:04;1.00;;;0.80;;
39540;SDS011;25219;52.244;21.006;2023-06-04T08:05:29;7.65;;;0.93;;
39540;SDS011;25219;52.244;21.006;2023-06-04T08:07:55;2.72;;;0.80;;
39540;SDS011;25219;52.244;21.006;2023-06-04T08:10:20;0.87;;;0.53;;
39540;SDS011;25219;52.244;21.006;2023-06-04T08:12:45;2.70;;;1.35;;
39540;SDS011;25219;52.244;21.006;2023-06-04T08:15:11;0.70;;;0.60;;
39540;SDS011;25219;52.244;21.006;2023-06-04T08:17:36;1.10;;;0.50;;
39540;SDS011;25219;52.244;21.006;2023-06-04T08:20:02;1.38;;;0.60;;
39540;SDS011;25219;52.244;21.006;2023-06-04T08:22:31;5.22;;;1.10;;
39540;SDS011;25219;52.244;21.006;2023-06-04T08:24:56;0.97;;;0.60;;
39540;SDS011;25219;52.244;21.006;2023-06-04T08:27:21;1.50;;;0.80;;
39540;SDS011;25219;52.244;21.006;2023-06-04T08:29:47;1.33;;;0.93;;
39540;SDS011;25219;52.244;21.006;2023-06-04T08:32:12;0.95;;;0.63;;
39540;SDS011;25219;52.244;21.006;2023-06-04T08:34:38;1.67;;;0.88;;
39540;SDS011;25219;52.244;21.006;2023-06-04T08:37:03;1.00;;;0.70;;
39540;SDS011;25219;52.244;21.006;2023-06-04T08:39:29;0.88;;;0.60;;
39540;SDS011;25219;52.244;21.006;2023-06-04T08:41:55;0.93;;;0.60;;
39540;SDS011;25219;52.244;21.006;2023-06-04T08:44:21;1.75;;;0.80;;
39540;SDS011;25219;52.244;21.006;2023-06-04T08:46:47;0.93;;;0.60;;
39540;SDS011;25219;52.244;21.006;2023-06-04T08:49:14;1.63;;;0.77;;
39540;SDS011;25219;52.244;21.006;2023-06-04T08:51:41;0.98;;;0.70;;
39540;SDS011;25219;52.244;21.006;2023-06-04T08:54:07;8.23;;;1.05;;
39540;SDS011;25219;52.244;21.006;2023-06-04T08:56:33;1.98;;;0.90;;
39540;SDS011;25219;52.244;21.006;2023-06-04T08:59:00;3.15;;;0.80;;
39540;SDS011;25219;52.244;21.006;2023-06-04T09:01:26;1.98;;;0.80;;
39540;SDS011;25219;52.244;21.006;2023-06-04T09:03:51;1.33;;;0.63;;
39540;SDS011;25219;52.244;21.006;2023-06-04T09:06:17;0.98;;;0.60;;
39540;SDS011;25219;52.244;21.006;2023-06-04T09:08:43;3.57;;;0.70;;
39540;SDS011;25219;52.244;21.006;2023-06-04T09:11:10;0.70;;;0.60;;
39540;SDS011;25219;52.244;21.006;2023-06-04T09:13:36;2.15;;;0.65;;
39540;SDS011;25219;52.244;21.006;2023-06-04T09:16:02;2.67;;;1.08;;
39540;SDS011;25219;52.244;21.006;2023-06-04T09:18:28;1.50;;;1.10;;
39540;SDS011;25219;52.244;21.006;2023-06-04T09:21:06;1.10;;;0.70;;
39540;SDS011;25219;52.244;21.006;2023-06-04T09:23:45;2.13;;;0.80;;
39540;SDS011;25219;52.244;21.006;2023-06-04T09:26:10;2.00;;;0.75;;
39540;SDS011;25219;52.244;21.006;2023-06-04T09:28:45;1.90;;;0.80;;
39540;SDS011;25219;52.244;21.006;2023-06-04T09:31:14;1.00;;;0.80;;
39540;SDS011;25219;52.244;21.006;2023-06-04T09:36:08;4.15;;;0.90;;
39540;SDS011;25219;52.244;21.006;2023-06-04T09:38:34;1.53;;;0.80;;
39540;SDS011;25219;52.244;21.006;2023-06-04T09:41:00;0.90;;;0.50;;
39540;SDS011;25219;52.244;21.006;2023-06-04T09:43:25;2.63;;;0.80;;
39540;SDS011;25219;52.244;21.006;2023-06-04T09:45:51;1.10;;;0.70;;
39540;SDS011;25219;52.244;21.006;2023-06-04T09:48:20;2.20;;;0.70;;
39540;SDS011;25219;52.244;21.006;2023-06-04T09:50:48;3.47;;;0.57;;
39540;SDS011;25219;52.244;21.006;2023-06-04T09:53:20;2.87;;;0.50;;
39540;SDS011;25219;52.244;21.006;2023-06-04T09:55:57;2.72;;;0.95;;
39540;SDS011;25219;52.244;21.006;2023-06-04T09:58:23;3.28;;;1.10;;
39540;SDS011;25219;52.244;21.006;2023-06-04T10:00:50;7.25;;;0.93;;
39540;SDS011;25219;52.244;21.006;2023-06-04T10:03:16;1.08;;;0.60;;
39540;SDS011;25219;52.244;21.006;2023-06-04T10:05:44;3.95;;;0.55;;
39540;SDS011;25219;52.244;21.006;2023-06-04T10:08:10;2.03;;;0.60;;
39540;SDS011;25219;52.244;21.006;2023-06-04T10:10:37;5.57;;;0.85;;
39540;SDS011;25219;52.244;21.006;2023-06-04T10:13:14;0.98;;;0.60;;
39540;SDS011;25219;52.244;21.006;2023-06-04T10:15:41;1.27;;;0.57;;
39540;SDS011;25219;52.244;21.006;2023-06-04T10:18:07;1.40;;;0.50;;
39540;SDS011;25219;52.244;21.006;2023-06-04T10:20:32;0.80;;;0.60;;
39540;SDS011;25219;52.244;21.006;2023-06-04T10:22:58;1.20;;;0.70;;
39540;SDS011;25219;52.244;21.006;2023-06-04T10:25:25;4.43;;;0.80;;
39540;SDS011;25219;52.244;21.006;2023-06-04T10:27:51;1.60;;;0.80;;
39540;SDS011;25219;52.244;21.006;2023-06-04T10:30:17;1.10;;;0.65;;
39540;SDS011;25219;52.244;21.006;2023-06-04T10:32:42;1.70;;;0.50;;
39540;SDS011;25219;52.244;21.006;2023-06-04T10:35:07;1.10;;;0.50;;
39540;SDS011;25219;52.244;21.006;2023-06-04T10:37:33;1.27;;;0.60;;
39540;SDS011;25219;52.244;21.006;2023-06-04T10:39:58;2.72;;;0.77;;
39540;SDS011;25219;52.244;21.006;2023-06-04T10:42:24;4.97;;;1.30;;
39540;SDS011;25219;52.244;21.006;2023-06-04T10:44:53;0.75;;;0.60;;
39540;SDS011;25219;52.244;21.006;2023-06-04T10:49:45;2.10;;;0.55;;
39540;SDS011;25219;52.244;21.006;2023-06-04T10:52:10;3.07;;;0.50;;
39540;SDS011;25219;52.244;21.006;2023-06-04T10:54:35;3.85;;;0.70;;
39540;SDS011;25219;52.244;21.006;2023-06-04T10:57:09;0.40;;;0.40;;
39540;SDS011;25219;52.244;21.006;2023-06-04T10:59:35;1.25;;;0.60;;
39540;SDS011;25219;52.244;21.006;2023-06-04T11:02:07;0.77;;;0.77;;
39540;SDS011;25219;52.244;21.006;2023-06-04T11:04:33;4.07;;;0.82;;
39540;SDS011;25219;52.244;21.006;2023-06-04T11:07:05;1.30;;;0.65;;
39540;SDS011;25219;52.244;21.006;2023-06-04T11:09:34;0.98;;;0.45;;
39540;SDS011;25219;52.244;21.006;2023-06-04T11:11:59;0.75;;;0.50;;
39540;SDS011;25219;52.244;21.006;2023-06-04T11:14:25;0.90;;;0.50;;
39540;SDS011;25219;52.244;21.006;2023-06-04T11:16:50;0.90;;;0.60;;
39540;SDS011;25219;52.244;21.006;2023-06-04T11:19:16;5.90;;;1.83;;
39540;SDS011;25219;52.244;21.006;2023-06-04T11:21:41;3.10;;;0.90;;
39540;SDS011;25219;52.244;21.006;2023-06-04T11:24:06;1.37;;;0.80;;
39540;SDS011;25219;52.244;21.006;2023-06-04T11:26:35;4.65;;;0.80;;
39540;SDS011;25219;52.244;21.006;2023-06-04T11:29:01;0.65;;;0.60;;
39540;SDS011;25219;52.244;21.006;2023-06-04T11:31:27;1.65;;;1.00;;
39540;SDS011;25219;52.244;21.006;2023-06-04T11:33:52;2.15;;;0.80;;
39540;SDS011;25219;52.244;21.006;2023-06-04T11:38:59;3.00;;;0.73;;
39540;SDS011;25219;52.244;21.006;2023-06-04T11:41:31;1.65;;;0.55;;
39540;SDS011;25219;52.244;21.006;2023-06-04T11:43:56;3.33;;;1.10;;
39540;SDS011;25219;52.244;21.006;2023-06-04T11:46:22;0.60;;;0.47;;
39540;SDS011;25219;52.244;21.006;2023-06-04T11:48:48;2.58;;;1.70;;
39540;SDS011;25219;52.244;21.006;2023-06-04T11:51:15;2.00;;;0.70;;
39540;SDS011;25219;52.244;21.006;2023-06-04T11:53:40;4.70;;;0.85;;
39540;SDS011;25219;52.244;21.006;2023-06-04T11:56:06;1.65;;;1.00;;
39540;SDS011;25219;52.244;21.006;2023-06-04T11:58:31;1.10;;;0.55;;
39540;SDS011;25219;52.244;21.006;2023-06-04T12:00:57;2.83;;;0.80;;
39540;SDS011;25219;52.244;21.006;2023-06-04T12:03:35;5.87;;;0.70;;
39540;SDS011;25219;52.244;21.006;2023-06-04T12:06:18;2.95;;;1.00;;
39540;SDS011;25219;52.244;21.006;2023-06-04T12:08:50;1.77;;;1.13;;
39540;SDS011;25219;52.244;21.006;2023-06-04T12:11:29;0.60;;;0.50;;
39540;SDS011;25219;52.244;21.006;2023-06-04T12:13:56;1.20;;;0.80;;
39540;SDS011;25219;52.244;21.006;2023-06-04T12:16:21;1.38;;;0.60;;
39540;SDS011;25219;52.244;21.006;2023-06-04T12:18:47;0.93;;;0.57;;
39540;SDS011;25219;52.244;21.006;2023-06-04T12:21:23;3.05;;;0.70;;
39540;SDS011;25219;52.244;21.006;2023-06-04T12:24:05;1.73;;;0.70;;
39540;SDS011;25219;52.244;21.006;2023-06-04T12:26:30;1.65;;;0.60;;
39540;SDS011;25219;52.244;21.006;2023-06-04T12:28:58;3.88;;;0.77;;
39540;SDS011;25219;52.244;21.006;2023-06-04T12:31:23;1.23;;;0.73;;
39540;SDS011;25219;52.244;21.006;2023-06-04T12:33:48;1.13;;;0.53;;
39540;SDS011;25219;52.244;21.006;2023-06-04T12:36:14;1.23;;;0.80;;
39540;SDS011;25219;52.244;21.006;2023-06-04T12:38:39;4.07;;;0.80;;
39540;SDS011;25219;52.244;21.006;2023-06-04T12:41:04;2.87;;;0.70;;
39540;SDS011;25219;52.244;21.006;2023-06-04T12:43:29;3.03;;;0.80;;
39540;SDS011;25219;52.244;21.006;2023-06-04T12:45:58;5.85;;;0.73;;
39540;SDS011;25219;52.244;21.006;2023-06-04T12:48:23;4.27;;;1.70;;
39540;SDS011;25219;52.244;21.006;2023-06-04T12:50:49;2.78;;;1.13;;
39540;SDS011;25219;52.244;21.006;2023-06-04T12:53:14;2.83;;;0.70;;
39540;SDS011;25219;52.244;21.006;2023-06-04T12:55:39;2.53;;;0.87;;
39540;SDS011;25219;52.244;21.006;2023-06-04T12:58:04;1.10;;;0.80;;
39540;SDS011;25219;52.244;21.006;2023-06-04T13:00:30;3.03;;;0.60;;
39540;SDS011;25219;52.244;21.006;2023-06-04T13:02:55;3.28;;;1.05;;
39540;SDS011;25219;52.244;21.006;2023-06-04T13:05:20;3.50;;;1.20;;
39540;SDS011;25219;52.244;21.006;2023-06-04T13:07:45;2.53;;;0.90;;
39540;SDS011;25219;52.244;21.006;2023-06-04T13:10:10;2.50;;;0.73;;
39540;SDS011;25219;52.244;21.006;2023-06-04T13:12:36;3.07;;;0.97;;
39540;SDS011;25219;52.244;21.006;2023-06-04T13:15:01;2.45;;;1.20;;
39540;SDS011;25219;52.244;21.006;2023-06-04T13:17:27;1.42;;;0.85;;
39540;SDS011;25219;52.244;21.006;2023-06-04T13:19:53;2.22;;;1.10;;
39540;SDS011;25219;52.244;21.006;2023-06-04T13:22:18;1.13;;;0.87;;
39540;SDS011;25219;52.244;21.006;2023-06-04T13:24:43;1.93;;;0.80;;
39540;SDS011;25219;52.244;21.006;2023-06-04T13:27:08;0.87;;;0.70;;
39540;SDS011;25219;52.244;21.006;2023-06-04T13:29:34;1.30;;;0.53;;
39540;SDS011;25219;52.244;21.006;2023-06-04T13:31:59;2.38;;;0.70;;
39540;SDS011;25219;52.244;21.006;2023-06-04T13:34:25;5.38;;;1.48;;
39540;SDS011;25219;52.244;21.006;2023-06-04T13:36:50;3.10;;;0.77;;
39540;SDS011;25219;52.244;21.006;2023-06-04T13:39:15;2.33;;;0.73;;
39540;SDS011;25219;52.244;21.006;2023-06-04T13:41:41;3.47;;;0.70;;
39540;SDS011;25219;52.244;21.006;2023-06-04T13:44:06;0.93;;;0.60;;
39540;SDS011;25219;52.244;21.006;2023-06-04T13:46:32;2.17;;;0.80;;
39540;SDS011;25219;52.244;21.006;2023-06-04T13:48:57;2.90;;;1.73;;
39540;SDS011;25219;52.244;21.006;2023-06-04T13:51:22;3.37;;;0.90;;
39540;SDS011;25219;52.244;21.006;2023-06-04T13:53:47;3.80;;;0.90;;
39540;SDS011;25219;52.244;21.006;2023-06-04T13:56:13;3.05;;;0.90;;
39540;SDS011;25219;52.244;21.006;2023-06-04T13:58:39;1.07;;;0.70;;
39540;SDS011;25219;52.244;21.006;2023-06-04T14:01:04;2.53;;;0.75;;
39540;SDS011;25219;52.244;21.006;2023-06-04T14:03:29;0.93;;;0.70;;
39540;SDS011;25219;52.244;21.006;2023-06-04T14:05:55;2.70;;;0.73;;
39540;SDS011;25219;52.244;21.006;2023-06-04T14:08:20;3.63;;;0.90;;
39540;SDS011;25219;52.244;21.006;2023-06-04T14:10:45;1.33;;;1.13;;
39540;SDS011;25219;52.244;21.006;2023-06-04T14:13:11;1.50;;;1.30;;
39540;SDS011;25219;52.244;21.006;2023-06-04T14:15:36;1.80;;;0.75;;
39540;SDS011;25219;52.244;21.006;2023-06-04T14:18:01;1.13;;;0.80;;
39540;SDS011;25219;52.244;21.006;2023-06-04T14:20:27;1.38;;;0.98;;
39540;SDS011;25219;52.244;21.006;2023-06-04T14:22:52;3.90;;;0.83;;
39540;SDS011;25219;52.244;21.006;2023-06-04T14:25:17;2.07;;;0.60;;
39540;SDS011;25219;52.244;21.006;2023-06-04T14:27:42;2.30;;;0.70;;
39540;SDS011;25219;52.244;21.006;2023-06-04T14:30:08;2.83;;;0.98;;
39540;SDS011;25219;52.244;21.006;2023-06-04T14:32:35;2.80;;;1.10;;
39540;SDS011;25219;52.244;21.006;2023-06-04T14:35:01;2.95;;;0.70;;
39540;SDS011;25219;52.244;21.006;2023-06-04T14:37:26;4.53;;;0.83;;
39540;SDS011;25219;52.244;21.006;2023-06-04T14:39:51;2.40;;;0.77;;